sensor_id;sensor_type;location;lat;lon;timestamp;P1;durP1;ratioP1;P2;durP2;ratioP2
46391;SDS011;32098;49.448;7.904;2023-02-01T00:00:22;6.90;;;4.43;;
46391;SDS011;32098;49.448;7.904;2023-02-01T00:02:48;10.10;;;5.00;;
46391;SDS011;32098;49.448;7.904;2023-02-01T00:05:15;6.37;;;4.73;;
46391;SDS011;32098;49.448;7.904;2023-02-01T00:07:41;8.33;;;5.23;;
46391;SDS011;32098;49.448;7.904;2023-02-01T00:10:08;7.90;;;4.70;;
46391;SDS011;32098;49.448;7.904;2023-02-01T00:12:35;6.07;;;4.90;;
46391;SDS011;32098;49.448;7.904;2023-02-01T00:15:01;7.03;;;4.57;;
46391;SDS011;32098;49.448;7.904;2023-02-01T00:17:28;10.57;;;5.47;;
46391;SDS011;32098;49.448;7.904;2023-02-01T00:19:54;9.00;;;5.53;;
46391;SDS011;32098;49.448;7.904;2023-02-01T00:22:21;7.47;;;4.77;;
46391;SDS011;32098;49.448;7.904;2023-02-01T00:24:47;8.57;;;5.60;;
46391;SDS011;32098;49.448;7.904;2023-02-01T00:27:14;6.97;;;4.93;;
46391;SDS011;32098;49.448;7.904;2023-02-01T00:29:44;7.40;;;5.20;;
46391;SDS011;32098;49.448;7.904;2023-02-01T00:32:11;9.03;;;4.93;;
46391;SDS011;32098;49.448;7.904;2023-02-01T00:34:38;7.23;;;4.87;;
46391;SDS011;32098;49.448;7.904;2023-02-01T00:37:04;5.60;;;5.10;;
46391;SDS011;32098;49.448;7.904;2023-02-01T00:39:31;6.60;;;4.77;;
46391;SDS011;32098;49.448;7.904;2023-02-01T00:41:59;10.40;;;5.30;;
46391;SDS011;32098;49.448;7.904;2023-02-01T00:44:26;8.73;;;4.80;;
46391;SDS011;32098;49.448;7.904;2023-02-01T00:46:53;7.47;;;4.93;;
46391;SDS011;32098;49.448;7.904;2023-02-01T00:49:19;9.13;;;4.83;;
46391;SDS011;32098;49.448;7.904;2023-02-01T00:51:46;8.93;;;4.90;;
46391;SDS011;32098;49.448;7.904;2023-02-01T00:54:13;7.57;;;4.67;;
46391;SDS011;32098;49.448;7.904;2023-02-01T00:56:40;8.77;;;4.60;;
46391;SDS011;32098;49.448;7.904;2023-02-01T00:59:07;8.07;;;4.53;;
46391;SDS011;32098;49.448;7.904;2023-02-01T01:01:36;7.00;;;4.50;;
46391;SDS011;32098;49.448;7.904;2023-02-01T01:04:03;6.97;;;4.40;;
46391;SDS011;32098;49.448;7.904;2023-02-01T01:06:31;6.60;;;4.53;;
46391;SDS011;32098;49.448;7.904;2023-02-01T01:08:59;6.90;;;4.40;;
46391;SDS011;32098;49.448;7.904;2023-02-01T01:11:28;7.53;;;4.80;;
46391;SDS011;32098;49.448;7.904;2023-02-01T01:13:56;7.60;;;4.30;;
46391;SDS011;32098;49.448;7.904;2023-02-01T01:16:25;7.20;;;4.37;;
46391;SDS011;32098;49.448;7.904;2023-02-01T01:18:54;7.37;;;4.60;;
46391;SDS011;32098;49.448;7.904;2023-02-01T01:21:21;7.67;;;4.90;;
46391;SDS011;32098;49.448;7.904;2023-02-01T01:23:48;8.00;;;4.23;;
46391;SDS011;32098;49.448;7.904;2023-02-01T01:26:16;7.60;;;4.90;;
46391;SDS011;32098;49.448;7.904;2023-02-01T01:28:45;7.43;;;4.27;;
46391;SDS011;32098;49.448;7.904;2023-02-01T01:31:12;7.03;;;4.67;;
46391;SDS011;32098;49.448;7.904;2023-02-01T01:33:40;7.40;;;4.80;;
46391;SDS011;32098;49.448;7.904;2023-02-01T01:36:07;8.27;;;4.77;;
46391;SDS011;32098;49.448;7.904;2023-02-01T01:38:37;6.63;;;4.50;;
46391;SDS011;32098;49.448;7.904;2023-02-01T01:41:04;6.90;;;4.60;;
46391;SDS011;32098;49.448;7.904;2023-02-01T01:43:46;7.33;;;5.03;;
46391;SDS011;32098;49.448;7.904;2023-02-01T01:46:19;6.40;;;4.60;;
46391;SDS011;32098;49.448;7.904;2023-02-01T01:48:48;7.67;;;4.80;;
46391;SDS011;32098;49.448;7.904;2023-02-01T01:51:20;5.67;;;4.30;;
46391;SDS011;32098;49.448;7.904;2023-02-01T01:54:00;7.20;;;3.97;;
46391;SDS011;32098;49.448;7.904;2023-02-01T01:56:31;7.80;;;5.10;;
46391;SDS011;32098;49.448;7.904;2023-02-01T01:59:01;6.73;;;4.93;;
46391;SDS011;32098;49.448;7.904;2023-02-01T02:01:28;7.13;;;5.13;;
46391;SDS011;32098;49.448;7.904;2023-02-01T02:03:55;8.63;;;4.93;;
46391;SDS011;32098;49.448;7.904;2023-02-01T02:09:21;8.13;;;4.97;;
46391;SDS011;32098;49.448;7.904;2023-02-01T02:11:48;8.67;;;5.50;;
46391;SDS011;32098;49.448;7.904;2023-02-01T02:14:15;10.63;;;5.53;;
46391;SDS011;32098;49.448;7.904;2023-02-01T02:16:52;8.67;;;5.93;;
46391;SDS011;32098;49.448;7.904;2023-02-01T02:28:17;8.57;;;5.07;;
46391;SDS011;32098;49.448;7.904;2023-02-01T02:45:17;7.10;;;4.57;;
46391;SDS011;32098;49.448;7.904;2023-02-01T02:48:12;8.93;;;4.97;;
46391;SDS011;32098;49.448;7.904;2023-02-01T02:50:44;8.53;;;5.23;;
46391;SDS011;32098;49.448;7.904;2023-02-01T02:53:37;9.37;;;5.07;;
46391;SDS011;32098;49.448;7.904;2023-02-01T02:56:30;7.30;;;5.00;;
46391;SDS011;32098;49.448;7.904;2023-02-01T02:59:17;9.67;;;5.27;;
46391;SDS011;32098;49.448;7.904;2023-02-01T03:02:06;6.70;;;4.70;;
46391;SDS011;32098;49.448;7.904;2023-02-01T03:04:53;7.23;;;4.70;;
46391;SDS011;32098;49.448;7.904;2023-02-01T03:10:28;9.07;;;5.30;;
46391;SDS011;32098;49.448;7.904;2023-02-01T03:13:08;10.70;;;6.20;;
46391;SDS011;32098;49.448;7.904;2023-02-01T03:15:40;9.07;;;5.80;;
46391;SDS011;32098;49.448;7.904;2023-02-01T03:18:24;8.30;;;6.10;;
46391;SDS011;32098;49.448;7.904;2023-02-01T03:20:57;11.33;;;7.50;;
46391;SDS011;32098;49.448;7.904;2023-02-01T03:23:27;13.27;;;7.57;;
46391;SDS011;32098;49.448;7.904;2023-02-01T03:25:59;6.13;;;4.43;;
46391;SDS011;32098;49.448;7.904;2023-02-01T03:28:28;9.33;;;4.97;;
46391;SDS011;32098;49.448;7.904;2023-02-01T03:30:58;9.37;;;5.03;;
46391;SDS011;32098;49.448;7.904;2023-02-01T03:33:27;6.97;;;4.80;;
46391;SDS011;32098;49.448;7.904;2023-02-01T03:36:10;6.80;;;4.57;;
46391;SDS011;32098;49.448;7.904;2023-02-01T03:38:50;6.50;;;4.93;;
46391;SDS011;32098;49.448;7.904;2023-02-01T03:44:02;8.53;;;4.90;;
46391;SDS011;32098;49.448;7.904;2023-02-01T03:46:55;8.40;;;5.07;;
46391;SDS011;32098;49.448;7.904;2023-02-01T03:49:27;8.53;;;4.90;;
46391;SDS011;32098;49.448;7.904;2023-02-01T03:52:05;7.87;;;4.87;;
46391;SDS011;32098;49.448;7.904;2023-02-01T03:54:34;7.73;;;4.80;;
46391;SDS011;32098;49.448;7.904;2023-02-01T03:57:04;6.90;;;4.93;;
46391;SDS011;32098;49.448;7.904;2023-02-01T03:59:39;7.07;;;4.47;;
46391;SDS011;32098;49.448;7.904;2023-02-01T04:02:07;8.53;;;4.33;;
46391;SDS011;32098;49.448;7.904;2023-02-01T04:04:35;7.77;;;4.50;;
46391;SDS011;32098;49.448;7.904;2023-02-01T04:07:02;5.67;;;4.03;;
46391;SDS011;32098;49.448;7.904;2023-02-01T04:09:30;6.60;;;4.07;;
46391;SDS011;32098;49.448;7.904;2023-02-01T04:11:56;9.43;;;4.03;;
46391;SDS011;32098;49.448;7.904;2023-02-01T04:14:22;6.57;;;3.63;;
46391;SDS011;32098;49.448;7.904;2023-02-01T04:16:49;7.37;;;4.73;;
46391;SDS011;32098;49.448;7.904;2023-02-01T04:19:16;7.77;;;4.03;;
46391;SDS011;32098;49.448;7.904;2023-02-01T04:21:42;8.67;;;4.17;;
46391;SDS011;32098;49.448;7.904;2023-02-01T04:24:09;9.90;;;4.67;;
46391;SDS011;32098;49.448;7.904;2023-02-01T04:26:37;8.13;;;4.33;;
46391;SDS011;32098;49.448;7.904;2023-02-01T04:29:03;9.17;;;4.20;;
46391;SDS011;32098;49.448;7.904;2023-02-01T04:31:30;7.07;;;3.60;;
46391;SDS011;32098;49.448;7.904;2023-02-01T04:33:57;8.97;;;4.07;;
46391;SDS011;32098;49.448;7.904;2023-02-01T04:36:23;6.47;;;3.90;;
46391;SDS011;32098;49.448;7.904;2023-02-01T04:38:50;5.90;;;3.87;;
46391;SDS011;32098;49.448;7.904;2023-02-01T04:41:17;7.07;;;3.83;;
46391;SDS011;32098;49.448;7.904;2023-02-01T04:43:48;8.23;;;4.00;;
46391;SDS011;32098;49.448;7.904;2023-02-01T04:46:16;9.27;;;4.33;;
46391;SDS011;32098;49.448;7.904;2023-02-01T04:48:42;5.73;;;3.90;;
46391;SDS011;32098;49.448;7.904;2023-02-01T04:51:09;7.87;;;5.27;;
46391;SDS011;32098;49.448;7.904;2023-02-01T04:53:36;10.67;;;4.57;;
46391;SDS011;32098;49.448;7.904;2023-02-01T04:56:03;8.60;;;4.37;;
46391;SDS011;32098;49.448;7.904;2023-02-01T04:58:29;7.97;;;5.03;;
46391;SDS011;32098;49.448;7.904;2023-02-01T05:00:56;10.57;;;5.90;;
46391;SDS011;32098;49.448;7.904;2023-02-01T05:03:22;7.83;;;4.93;;
46391;SDS011;32098;49.448;7.904;2023-02-01T05:05:49;7.43;;;4.87;;
46391;SDS011;32098;49.448;7.904;2023-02-01T05:08:16;9.47;;;5.30;;
46391;SDS011;32098;49.448;7.904;2023-02-01T05:10:42;7.63;;;4.80;;
46391;SDS011;32098;49.448;7.904;2023-02-01T05:13:11;10.57;;;4.80;;
46391;SDS011;32098;49.448;7.904;2023-02-01T05:15:56;8.90;;;4.90;;
46391;SDS011;32098;49.448;7.904;2023-02-01T05:18:23;7.87;;;5.40;;
46391;SDS011;32098;49.448;7.904;2023-02-01T05:20:49;9.73;;;5.40;;
46391;SDS011;32098;49.448;7.904;2023-02-01T05:23:16;7.37;;;4.30;;
46391;SDS011;32098;49.448;7.904;2023-02-01T05:25:42;7.37;;;4.00;;
46391;SDS011;32098;49.448;7.904;2023-02-01T05:28:09;8.43;;;3.50;;
46391;SDS011;32098;49.448;7.904;2023-02-01T05:30:35;6.60;;;3.80;;
46391;SDS011;32098;49.448;7.904;2023-02-01T05:33:02;7.47;;;4.10;;
46391;SDS011;32098;49.448;7.904;2023-02-01T05:35:29;9.93;;;4.83;;
46391;SDS011;32098;49.448;7.904;2023-02-01T05:37:56;5.40;;;3.90;;
46391;SDS011;32098;49.448;7.904;2023-02-01T05:40:22;6.60;;;4.30;;
46391;SDS011;32098;49.448;7.904;2023-02-01T05:42:49;9.13;;;4.67;;
46391;SDS011;32098;49.448;7.904;2023-02-01T05:45:16;6.23;;;4.00;;
46391;SDS011;32098;49.448;7.904;2023-02-01T05:47:42;8.77;;;5.23;;
46391;SDS011;32098;49.448;7.904;2023-02-01T05:50:09;8.57;;;4.50;;
46391;SDS011;32098;49.448;7.904;2023-02-01T05:52:36;11.83;;;5.63;;
46391;SDS011;32098;49.448;7.904;2023-02-01T05:55:02;12.30;;;6.50;;
46391;SDS011;32098;49.448;7.904;2023-02-01T05:57:29;10.40;;;5.30;;
46391;SDS011;32098;49.448;7.904;2023-02-01T05:59:56;12.57;;;8.13;;
46391;SDS011;32098;49.448;7.904;2023-02-01T06:02:25;10.37;;;5.37;;
46391;SDS011;32098;49.448;7.904;2023-02-01T06:04:52;6.93;;;4.43;;
46391;SDS011;32098;49.448;7.904;2023-02-01T06:07:18;9.23;;;4.50;;
46391;SDS011;32098;49.448;7.904;2023-02-01T06:09:45;7.93;;;4.30;;
46391;SDS011;32098;49.448;7.904;2023-02-01T06:12:11;6.67;;;4.03;;
46391;SDS011;32098;49.448;7.904;2023-02-01T06:14:38;9.13;;;4.00;;
46391;SDS011;32098;49.448;7.904;2023-02-01T06:17:04;6.83;;;4.13;;
46391;SDS011;32098;49.448;7.904;2023-02-01T06:19:32;9.50;;;4.10;;
46391;SDS011;32098;49.448;7.904;2023-02-01T06:21:58;9.00;;;4.40;;
46391;SDS011;32098;49.448;7.904;2023-02-01T06:24:25;7.13;;;4.17;;
46391;SDS011;32098;49.448;7.904;2023-02-01T06:26:51;10.90;;;4.27;;
46391;SDS011;32098;49.448;7.904;2023-02-01T06:29:18;6.73;;;4.00;;
46391;SDS011;32098;49.448;7.904;2023-02-01T06:31:44;10.10;;;3.87;;
46391;SDS011;32098;49.448;7.904;2023-02-01T06:34:11;6.77;;;3.53;;
46391;SDS011;32098;49.448;7.904;2023-02-01T06:36:37;11.73;;;3.60;;
46391;SDS011;32098;49.448;7.904;2023-02-01T06:39:04;10.77;;;4.07;;
46391;SDS011;32098;49.448;7.904;2023-02-01T06:41:31;9.40;;;4.10;;
46391;SDS011;32098;49.448;7.904;2023-02-01T06:43:57;7.60;;;4.20;;
46391;SDS011;32098;49.448;7.904;2023-02-01T06:46:23;10.40;;;4.43;;
46391;SDS011;32098;49.448;7.904;2023-02-01T06:48:50;15.07;;;5.07;;
46391;SDS011;32098;49.448;7.904;2023-02-01T06:51:21;10.33;;;4.60;;
46391;SDS011;32098;49.448;7.904;2023-02-01T06:53:49;12.83;;;4.63;;
46391;SDS011;32098;49.448;7.904;2023-02-01T06:56:15;8.77;;;4.13;;
46391;SDS011;32098;49.448;7.904;2023-02-01T06:58:42;7.47;;;4.20;;
46391;SDS011;32098;49.448;7.904;2023-02-01T07:01:09;9.17;;;4.27;;
46391;SDS011;32098;49.448;7.904;2023-02-01T07:03:37;8.23;;;4.13;;
46391;SDS011;32098;49.448;7.904;2023-02-01T07:06:04;14.83;;;5.10;;
46391;SDS011;32098;49.448;7.904;2023-02-01T07:08:32;11.20;;;4.90;;
46391;SDS011;32098;49.448;7.904;2023-02-01T07:11:06;13.87;;;5.57;;
46391;SDS011;32098;49.448;7.904;2023-02-01T07:13:35;10.00;;;4.87;;
46391;SDS011;32098;49.448;7.904;2023-02-01T07:16:04;9.17;;;4.37;;
46391;SDS011;32098;49.448;7.904;2023-02-01T07:18:32;12.07;;;4.70;;
46391;SDS011;32098;49.448;7.904;2023-02-01T07:20:58;10.83;;;4.17;;
46391;SDS011;32098;49.448;7.904;2023-02-01T07:23:26;8.67;;;3.67;;
46391;SDS011;32098;49.448;7.904;2023-02-01T07:25:53;7.67;;;2.90;;
46391;SDS011;32098;49.448;7.904;2023-02-01T07:28:24;5.57;;;2.67;;
46391;SDS011;32098;49.448;7.904;2023-02-01T07:30:51;8.70;;;2.60;;
46391;SDS011;32098;49.448;7.904;2023-02-01T07:33:19;4.23;;;3.07;;
46391;SDS011;32098;49.448;7.904;2023-02-01T07:35:47;6.73;;;3.07;;
46391;SDS011;32098;49.448;7.904;2023-02-01T07:38:15;8.33;;;2.80;;
46391;SDS011;32098;49.448;7.904;2023-02-01T07:40:43;12.13;;;3.63;;
46391;SDS011;32098;49.448;7.904;2023-02-01T07:43:09;8.97;;;3.40;;
46391;SDS011;32098;49.448;7.904;2023-02-01T07:45:36;10.03;;;4.00;;
46391;SDS011;32098;49.448;7.904;2023-02-01T07:48:03;13.03;;;5.33;;
46391;SDS011;32098;49.448;7.904;2023-02-01T07:50:30;12.30;;;4.80;;
46391;SDS011;32098;49.448;7.904;2023-02-01T07:52:59;12.30;;;4.77;;
46391;SDS011;32098;49.448;7.904;2023-02-01T07:55:27;11.70;;;5.67;;
46391;SDS011;32098;49.448;7.904;2023-02-01T07:57:56;11.93;;;5.00;;
46391;SDS011;32098;49.448;7.904;2023-02-01T08:00:23;11.50;;;5.20;;
46391;SDS011;32098;49.448;7.904;2023-02-01T08:03:08;10.87;;;5.27;;
46391;SDS011;32098;49.448;7.904;2023-02-01T08:05:35;13.97;;;5.40;;
46391;SDS011;32098;49.448;7.904;2023-02-01T08:08:03;14.70;;;5.80;;
46391;SDS011;32098;49.448;7.904;2023-02-01T08:10:30;14.10;;;6.40;;
46391;SDS011;32098;49.448;7.904;2023-02-01T08:12:58;13.77;;;5.37;;
46391;SDS011;32098;49.448;7.904;2023-02-01T08:15:26;17.87;;;5.53;;
46391;SDS011;32098;49.448;7.904;2023-02-01T08:17:53;15.63;;;5.07;;
46391;SDS011;32098;49.448;7.904;2023-02-01T08:20:21;12.13;;;5.00;;
46391;SDS011;32098;49.448;7.904;2023-02-01T08:22:52;19.97;;;5.37;;
46391;SDS011;32098;49.448;7.904;2023-02-01T08:25:20;16.73;;;5.30;;
46391;SDS011;32098;49.448;7.904;2023-02-01T08:27:47;13.47;;;5.27;;
46391;SDS011;32098;49.448;7.904;2023-02-01T08:30:13;19.37;;;5.37;;
46391;SDS011;32098;49.448;7.904;2023-02-01T08:32:40;16.00;;;5.40;;
46391;SDS011;32098;49.448;7.904;2023-02-01T08:35:08;13.07;;;4.80;;
46391;SDS011;32098;49.448;7.904;2023-02-01T08:37:35;15.30;;;4.87;;
46391;SDS011;32098;49.448;7.904;2023-02-01T08:40:01;12.57;;;4.90;;
46391;SDS011;32098;49.448;7.904;2023-02-01T08:42:29;17.13;;;4.97;;
46391;SDS011;32098;49.448;7.904;2023-02-01T08:45:15;16.87;;;4.67;;
46391;SDS011;32098;49.448;7.904;2023-02-01T08:47:41;11.50;;;4.00;;
46391;SDS011;32098;49.448;7.904;2023-02-01T08:50:08;12.63;;;3.77;;
46391;SDS011;32098;49.448;7.904;2023-02-01T08:52:35;12.60;;;4.10;;
46391;SDS011;32098;49.448;7.904;2023-02-01T08:55:03;14.53;;;4.03;;
46391;SDS011;32098;49.448;7.904;2023-02-01T08:57:32;13.80;;;4.00;;
46391;SDS011;32098;49.448;7.904;2023-02-01T08:59:59;11.87;;;4.00;;
46391;SDS011;32098;49.448;7.904;2023-02-01T09:02:26;10.83;;;3.87;;
46391;SDS011;32098;49.448;7.904;2023-02-01T09:04:53;14.07;;;3.57;;
46391;SDS011;32098;49.448;7.904;2023-02-01T09:07:20;11.20;;;2.97;;
46391;SDS011;32098;49.448;7.904;2023-02-01T09:09:47;10.73;;;3.33;;
46391;SDS011;32098;49.448;7.904;2023-02-01T09:12:13;11.60;;;3.07;;
46391;SDS011;32098;49.448;7.904;2023-02-01T09:14:40;11.73;;;3.43;;
46391;SDS011;32098;49.448;7.904;2023-02-01T09:17:07;15.77;;;3.63;;
46391;SDS011;32098;49.448;7.904;2023-02-01T09:19:33;12.20;;;3.17;;
46391;SDS011;32098;49.448;7.904;2023-02-01T09:22:00;12.83;;;3.27;;
46391;SDS011;32098;49.448;7.904;2023-02-01T09:24:26;8.93;;;3.30;;
46391;SDS011;32098;49.448;7.904;2023-02-01T09:26:54;13.23;;;3.57;;
46391;SDS011;32098;49.448;7.904;2023-02-01T09:29:20;9.87;;;3.27;;
46391;SDS011;32098;49.448;7.904;2023-02-01T09:31:47;12.07;;;3.57;;
46391;SDS011;32098;49.448;7.904;2023-02-01T09:34:28;14.30;;;3.27;;
46391;SDS011;32098;49.448;7.904;2023-02-01T09:36:55;13.87;;;3.50;;
46391;SDS011;32098;49.448;7.904;2023-02-01T09:39:22;12.20;;;3.07;;
46391;SDS011;32098;49.448;7.904;2023-02-01T09:47:36;14.97;;;3.43;;
46391;SDS011;32098;49.448;7.904;2023-02-01T09:50:22;13.90;;;3.20;;
46391;SDS011;32098;49.448;7.904;2023-02-01T09:53:05;13.87;;;3.37;;
46391;SDS011;32098;49.448;7.904;2023-02-01T09:55:45;10.13;;;3.80;;
46391;SDS011;32098;49.448;7.904;2023-02-01T10:00:55;15.47;;;4.20;;
46391;SDS011;32098;49.448;7.904;2023-02-01T10:03:24;14.67;;;4.43;;
46391;SDS011;32098;49.448;7.904;2023-02-01T10:11:29;13.60;;;3.50;;
46391;SDS011;32098;49.448;7.904;2023-02-01T10:22:35;13.23;;;3.43;;
46391;SDS011;32098;49.448;7.904;2023-02-01T10:25:28;12.43;;;3.33;;
46391;SDS011;32098;49.448;7.904;2023-02-01T10:28:02;17.50;;;4.07;;
46391;SDS011;32098;49.448;7.904;2023-02-01T10:30:37;14.77;;;3.30;;
46391;SDS011;32098;49.448;7.904;2023-02-01T10:33:19;8.90;;;3.17;;
46391;SDS011;32098;49.448;7.904;2023-02-01T10:35:52;18.90;;;3.40;;
46391;SDS011;32098;49.448;7.904;2023-02-01T10:38:24;11.43;;;2.83;;
46391;SDS011;32098;49.448;7.904;2023-02-01T10:40:54;14.07;;;3.50;;
46391;SDS011;32098;49.448;7.904;2023-02-01T10:43:27;18.17;;;3.70;;
46391;SDS011;32098;49.448;7.904;2023-02-01T10:45:54;20.03;;;5.00;;
46391;SDS011;32098;49.448;7.904;2023-02-01T10:48:21;20.37;;;7.47;;
46391;SDS011;32098;49.448;7.904;2023-02-01T10:56:40;13.80;;;4.10;;
46391;SDS011;32098;49.448;7.904;2023-02-01T10:59:19;14.20;;;3.57;;
46391;SDS011;32098;49.448;7.904;2023-02-01T11:01:50;17.97;;;7.57;;
46391;SDS011;32098;49.448;7.904;2023-02-01T11:04:26;17.33;;;5.50;;
46391;SDS011;32098;49.448;7.904;2023-02-01T11:07:04;13.57;;;3.70;;
46391;SDS011;32098;49.448;7.904;2023-02-01T11:09:35;14.10;;;3.30;;
46391;SDS011;32098;49.448;7.904;2023-02-01T11:12:20;14.03;;;3.83;;
46391;SDS011;32098;49.448;7.904;2023-02-01T11:14:58;15.50;;;4.30;;
46391;SDS011;32098;49.448;7.904;2023-02-01T11:17:31;18.90;;;5.43;;
46391;SDS011;32098;49.448;7.904;2023-02-01T11:20:02;15.43;;;7.30;;
46391;SDS011;32098;49.448;7.904;2023-02-01T11:22:32;12.83;;;3.80;;
46391;SDS011;32098;49.448;7.904;2023-02-01T11:24:59;11.07;;;3.60;;
46391;SDS011;32098;49.448;7.904;2023-02-01T11:27:28;11.40;;;3.43;;
46391;SDS011;32098;49.448;7.904;2023-02-01T11:29:55;9.97;;;2.90;;
46391;SDS011;32098;49.448;7.904;2023-02-01T11:32:26;9.37;;;4.00;;
46391;SDS011;32098;49.448;7.904;2023-02-01T11:34:59;12.23;;;3.53;;
46391;SDS011;32098;49.448;7.904;2023-02-01T11:37:33;16.57;;;4.10;;
46391;SDS011;32098;49.448;7.904;2023-02-01T11:40:18;12.27;;;3.20;;
46391;SDS011;32098;49.448;7.904;2023-02-01T11:45:58;16.97;;;3.67;;
46391;SDS011;32098;49.448;7.904;2023-02-01T11:48:27;11.50;;;3.37;;
46391;SDS011;32098;49.448;7.904;2023-02-01T11:54:21;13.93;;;3.60;;
46391;SDS011;32098;49.448;7.904;2023-02-01T12:08:29;17.40;;;5.37;;
46391;SDS011;32098;49.448;7.904;2023-02-01T12:14:08;13.27;;;4.10;;
46391;SDS011;32098;49.448;7.904;2023-02-01T12:19:42;12.87;;;3.57;;
46391;SDS011;32098;49.448;7.904;2023-02-01T12:39:42;10.13;;;3.50;;
46391;SDS011;32098;49.448;7.904;2023-02-01T12:45:11;17.37;;;3.50;;
46391;SDS011;32098;49.448;7.904;2023-02-01T12:47:44;13.13;;;3.27;;
46391;SDS011;32098;49.448;7.904;2023-02-01T12:54:24;8.93;;;3.13;;
46391;SDS011;32098;49.448;7.904;2023-02-01T12:57:42;12.27;;;3.10;;
46391;SDS011;32098;49.448;7.904;2023-02-01T13:02:54;13.13;;;3.30;;
46391;SDS011;32098;49.448;7.904;2023-02-01T13:05:34;15.07;;;3.27;;
46391;SDS011;32098;49.448;7.904;2023-02-01T13:08:14;11.93;;;3.53;;
46391;SDS011;32098;49.448;7.904;2023-02-01T13:11:03;10.67;;;2.63;;
46391;SDS011;32098;49.448;7.904;2023-02-01T13:13:41;10.77;;;3.10;;
46391;SDS011;32098;49.448;7.904;2023-02-01T13:16:53;11.13;;;2.97;;
46391;SDS011;32098;49.448;7.904;2023-02-01T13:19:22;12.90;;;3.00;;
46391;SDS011;32098;49.448;7.904;2023-02-01T13:21:58;8.63;;;2.77;;
46391;SDS011;32098;49.448;7.904;2023-02-01T13:24:36;10.33;;;3.20;;
46391;SDS011;32098;49.448;7.904;2023-02-01T13:27:08;9.70;;;3.20;;
46391;SDS011;32098;49.448;7.904;2023-02-01T13:29:46;12.80;;;2.73;;
46391;SDS011;32098;49.448;7.904;2023-02-01T13:35:24;7.33;;;2.10;;
46391;SDS011;32098;49.448;7.904;2023-02-01T13:43:55;13.33;;;2.93;;
46391;SDS011;32098;49.448;7.904;2023-02-01T13:46:41;11.87;;;3.30;;
46391;SDS011;32098;49.448;7.904;2023-02-01T13:49:17;14.77;;;3.00;;
46391;SDS011;32098;49.448;7.904;2023-02-01T13:51:49;13.43;;;3.10;;
46391;SDS011;32098;49.448;7.904;2023-02-01T13:54:33;11.20;;;2.87;;
46391;SDS011;32098;49.448;7.904;2023-02-01T13:57:03;8.90;;;2.67;;
46391;SDS011;32098;49.448;7.904;2023-02-01T14:05:09;9.23;;;2.67;;
46391;SDS011;32098;49.448;7.904;2023-02-01T14:07:49;7.03;;;2.30;;
46391;SDS011;32098;49.448;7.904;2023-02-01T14:13:22;14.33;;;2.53;;
46391;SDS011;32098;49.448;7.904;2023-02-01T14:16:10;10.50;;;2.17;;
46391;SDS011;32098;49.448;7.904;2023-02-01T14:21:22;12.70;;;3.20;;
46391;SDS011;32098;49.448;7.904;2023-02-01T14:24:19;7.20;;;1.90;;
46391;SDS011;32098;49.448;7.904;2023-02-01T14:26:54;6.57;;;2.13;;
46391;SDS011;32098;49.448;7.904;2023-02-01T14:29:27;9.40;;;2.70;;
46391;SDS011;32098;49.448;7.904;2023-02-01T14:42:17;12.13;;;3.03;;
46391;SDS011;32098;49.448;7.904;2023-02-01T14:44:50;10.27;;;2.60;;
46391;SDS011;32098;49.448;7.904;2023-02-01T14:47:26;11.70;;;2.97;;
46391;SDS011;32098;49.448;7.904;2023-02-01T14:49:56;10.57;;;3.40;;
46391;SDS011;32098;49.448;7.904;2023-02-01T14:52:44;10.17;;;3.07;;
46391;SDS011;32098;49.448;7.904;2023-02-01T14:55:35;11.93;;;2.93;;
46391;SDS011;32098;49.448;7.904;2023-02-01T14:58:00;10.37;;;2.83;;
46391;SDS011;32098;49.448;7.904;2023-02-01T15:00:31;10.73;;;2.67;;
46391;SDS011;32098;49.448;7.904;2023-02-01T15:05:56;11.63;;;4.23;;
46391;SDS011;32098;49.448;7.904;2023-02-01T15:08:28;12.50;;;2.77;;
46391;SDS011;32098;49.448;7.904;2023-02-01T15:10:58;10.47;;;3.53;;
46391;SDS011;32098;49.448;7.904;2023-02-01T15:13:28;13.73;;;3.77;;
46391;SDS011;32098;49.448;7.904;2023-02-01T15:16:12;13.70;;;4.70;;
46391;SDS011;32098;49.448;7.904;2023-02-01T15:18:40;13.60;;;3.97;;
46391;SDS011;32098;49.448;7.904;2023-02-01T15:21:21;11.13;;;3.63;;
46391;SDS011;32098;49.448;7.904;2023-02-01T15:24:09;14.33;;;4.80;;
46391;SDS011;32098;49.448;7.904;2023-02-01T15:26:40;14.00;;;5.50;;
46391;SDS011;32098;49.448;7.904;2023-02-01T15:29:11;15.70;;;6.00;;
46391;SDS011;32098;49.448;7.904;2023-02-01T15:31:40;21.50;;;6.43;;
46391;SDS011;32098;49.448;7.904;2023-02-01T15:34:09;20.03;;;7.00;;
46391;SDS011;32098;49.448;7.904;2023-02-01T15:36:37;21.50;;;5.93;;
46391;SDS011;32098;49.448;7.904;2023-02-01T15:39:20;18.30;;;6.80;;
46391;SDS011;32098;49.448;7.904;2023-02-01T15:41:51;13.80;;;3.27;;
46391;SDS011;32098;49.448;7.904;2023-02-01T15:44:42;10.10;;;2.73;;
46391;SDS011;32098;49.448;7.904;2023-02-01T15:47:20;8.20;;;3.10;;
46391;SDS011;32098;49.448;7.904;2023-02-01T15:49:51;16.10;;;3.20;;
46391;SDS011;32098;49.448;7.904;2023-02-01T15:52:34;10.47;;;3.03;;
46391;SDS011;32098;49.448;7.904;2023-02-01T15:55:05;12.97;;;3.90;;
46391;SDS011;32098;49.448;7.904;2023-02-01T15:57:36;14.07;;;4.33;;
46391;SDS011;32098;49.448;7.904;2023-02-01T16:00:07;12.47;;;4.00;;
46391;SDS011;32098;49.448;7.904;2023-02-01T16:02:52;14.77;;;4.43;;
46391;SDS011;32098;49.448;7.904;2023-02-01T16:05:38;10.30;;;3.40;;
46391;SDS011;32098;49.448;7.904;2023-02-01T16:08:17;11.83;;;3.83;;
46391;SDS011;32098;49.448;7.904;2023-02-01T16:10:49;10.77;;;3.33;;
46391;SDS011;32098;49.448;7.904;2023-02-01T16:13:19;14.07;;;4.47;;
46391;SDS011;32098;49.448;7.904;2023-02-01T16:15:46;11.03;;;3.40;;
46391;SDS011;32098;49.448;7.904;2023-02-01T16:18:13;11.30;;;4.67;;
46391;SDS011;32098;49.448;7.904;2023-02-01T16:20:44;13.43;;;3.50;;
46391;SDS011;32098;49.448;7.904;2023-02-01T16:23:11;15.53;;;3.80;;
46391;SDS011;32098;49.448;7.904;2023-02-01T16:25:38;11.67;;;3.33;;
46391;SDS011;32098;49.448;7.904;2023-02-01T16:28:06;13.43;;;3.40;;
46391;SDS011;32098;49.448;7.904;2023-02-01T16:30:33;11.90;;;3.40;;
46391;SDS011;32098;49.448;7.904;2023-02-01T16:33:00;13.70;;;3.20;;
46391;SDS011;32098;49.448;7.904;2023-02-01T16:35:34;10.40;;;3.43;;
46391;SDS011;32098;49.448;7.904;2023-02-01T16:38:03;13.80;;;4.00;;
46391;SDS011;32098;49.448;7.904;2023-02-01T16:40:34;12.37;;;3.70;;
46391;SDS011;32098;49.448;7.904;2023-02-01T16:43:01;14.63;;;3.97;;
46391;SDS011;32098;49.448;7.904;2023-02-01T16:45:28;14.10;;;3.83;;
46391;SDS011;32098;49.448;7.904;2023-02-01T16:47:56;13.83;;;3.27;;
46391;SDS011;32098;49.448;7.904;2023-02-01T16:50:24;10.67;;;3.10;;
46391;SDS011;32098;49.448;7.904;2023-02-01T16:52:52;7.87;;;2.30;;
46391;SDS011;32098;49.448;7.904;2023-02-01T16:55:20;13.33;;;3.00;;
46391;SDS011;32098;49.448;7.904;2023-02-01T16:57:48;9.57;;;2.80;;
46391;SDS011;32098;49.448;7.904;2023-02-01T17:00:15;12.47;;;3.43;;
46391;SDS011;32098;49.448;7.904;2023-02-01T17:02:51;24.30;;;8.30;;
46391;SDS011;32098;49.448;7.904;2023-02-01T17:05:19;29.87;;;7.90;;
46391;SDS011;32098;49.448;7.904;2023-02-01T17:07:45;19.63;;;7.73;;
46391;SDS011;32098;49.448;7.904;2023-02-01T17:10:21;9.60;;;3.10;;
46391;SDS011;32098;49.448;7.904;2023-02-01T17:13:00;11.67;;;5.00;;
46391;SDS011;32098;49.448;7.904;2023-02-01T17:15:28;10.70;;;3.40;;
46391;SDS011;32098;49.448;7.904;2023-02-01T17:18:00;11.57;;;3.20;;
46391;SDS011;32098;49.448;7.904;2023-02-01T17:20:29;10.40;;;2.50;;
46391;SDS011;32098;49.448;7.904;2023-02-01T17:22:58;12.70;;;2.70;;
46391;SDS011;32098;49.448;7.904;2023-02-01T17:25:24;9.20;;;2.63;;
46391;SDS011;32098;49.448;7.904;2023-02-01T17:27:53;12.53;;;2.90;;